Time;durP1;ratioP1;P1;durP2;ratioP2;P2;SDS_P1;SDS_P2;PMS_P1;PMS_P2;Temp;Humidity;BMP_temperature;BMP_pressure;BME280_temperature;BME280_humidity;BME280_pressure;Samples;Min_cycle;Max_cycle;Signal;HPM_P1;HPM_P2
2022/01/21 00:00:13;;;;;;;5.90;3.27;;;;;;;;;;5028826;28;20185;-75
2022/01/21 00:02:38;;;;;;;4.77;3.30;;;;;;;;;;5031855;28;20166;-75
2022/01/21 00:05:04;;;;;;;6.30;3.20;;;;;;;;;;5013815;28;20182;-75
2022/01/21 00:07:29;;;;;;;5.33;2.70;;;;;;;;;;5013225;28;20241;-75
2022/01/21 00:09:54;;;;;;;6.47;2.17;;;;;;;;;;5042674;28;20235;-75
2022/01/21 00:12:20;;;;;;;2.73;2.27;;;;;;;;;;5016183;28;20217;-75
2022/01/21 00:14:46;;;;;;;3.03;1.80;;;;;;;;;;5017318;28;20214;-75
2022/01/21 00:17:11;;;;;;;7.33;2.70;;;;;;;;;;5031782;28;20265;-75
2022/01/21 00:19:41;;;;;;;6.87;2.40;;;;;;;;;;5016973;28;20211;-75
2022/01/21 00:30:24;;;;;;;6.10;3.07;;;;;;;;;;5027942;28;20215;-75
2022/01/21 00:32:50;;;;;;;7.97;3.23;;;;;;;;;;5026714;28;20183;-75
2022/01/21 00:35:16;;;;;;;6.20;3.43;;;;;;;;;;5012402;28;20206;-75
2022/01/21 00:37:41;;;;;;;4.97;2.73;;;;;;;;;;5014933;28;20175;-75
2022/01/21 00:40:09;;;;;;;6.97;3.53;;;;;;;;;;5014022;28;20175;-75
2022/01/21 00:45:03;;;;;;;5.13;2.80;;;;;;;;;;5032856;28;20191;-75
2022/01/21 00:47:28;;;;;;;5.20;2.77;;;;;;;;;;5015214;28;20205;-75
2022/01/21 00:49:53;;;;;;;3.77;2.73;;;;;;;;;;5042772;28;20184;-75
2022/01/21 00:52:19;;;;;;;10.00;3.07;;;;;;;;;;5014537;28;20179;-76
2022/01/21 00:54:44;;;;;;;5.93;3.00;;;;;;;;;;5031237;28;20202;-76
2022/01/21 00:57:09;;;;;;;9.47;2.80;;;;;;;;;;5027938;28;20202;-75
2022/01/21 00:59:35;;;;;;;4.17;2.53;;;;;;;;;;5015455;28;20182;-75
2022/01/21 01:02:00;;;;;;;4.80;2.43;;;;;;;;;;5016354;28;20262;-75
2022/01/21 01:04:25;;;;;;;7.47;2.73;;;;;;;;;;5009072;28;20171;-75
2022/01/21 01:06:50;;;;;;;6.03;2.40;;;;;;;;;;5015399;28;20185;-75
2022/01/21 01:09:16;;;;;;;5.40;3.20;;;;;;;;;;5018770;28;20186;-75
2022/01/21 01:20:03;;;;;;;6.10;2.57;;;;;;;;;;5032533;28;20197;-75
2022/01/21 01:27:45;;;;;;;5.20;1.87;;;;;;;;;;5028116;28;20188;-76
2022/01/21 01:30:15;;;;;;;3.67;2.00;;;;;;;;;;5010879;28;20211;-75
2022/01/21 01:32:40;;;;;;;6.43;3.10;;;;;;;;;;5012255;28;20189;-75
2022/01/21 01:35:07;;;;;;;8.33;2.60;;;;;;;;;;5014265;28;20212;-75
2022/01/21 01:38:08;;;;;;;6.03;2.83;;;;;;;;;;5015737;28;20174;-75
2022/01/21 01:40:40;;;;;;;2.70;1.97;;;;;;;;;;5028858;28;20241;-75
2022/01/21 01:50:56;;;;;;;4.43;2.73;;;;;;;;;;5029086;28;20183;-76
2022/01/21 01:53:23;;;;;;;8.47;3.10;;;;;;;;;;5017084;28;20174;-76
2022/01/21 01:55:48;;;;;;;8.60;3.00;;;;;;;;;;5013893;28;20235;-75
2022/01/21 01:58:14;;;;;;;5.93;2.90;;;;;;;;;;5046719;28;20251;-75
2022/01/21 02:00:40;;;;;;;6.73;2.70;;;;;;;;;;5043328;28;20187;-75
2022/01/21 02:03:06;;;;;;;3.33;2.20;;;;;;;;;;5008877;28;20266;-75
2022/01/21 02:05:31;;;;;;;4.57;2.60;;;;;;;;;;5008978;28;20523;-75
2022/01/21 02:07:57;;;;;;;7.33;3.07;;;;;;;;;;5025604;28;20218;-75
2022/01/21 02:10:22;;;;;;;2.50;2.13;;;;;;;;;;5012721;28;20254;-75
2022/01/21 02:12:47;;;;;;;5.40;2.47;;;;;;;;;;5017484;28;20179;-75
2022/01/21 02:15:12;;;;;;;3.97;2.00;;;;;;;;;;5040930;28;20201;-75
2022/01/21 02:22:49;;;;;;;7.20;1.87;;;;;;;;;;5027697;28;20181;-75
2022/01/21 02:25:19;;;;;;;3.60;2.07;;;;;;;;;;5029662;28;20181;-75
2022/01/21 02:27:49;;;;;;;2.47;1.33;;;;;;;;;;5011442;28;20178;-75
2022/01/21 02:30:18;;;;;;;4.30;2.57;;;;;;;;;;5030769;28;20244;-75
2022/01/21 02:32:47;;;;;;;4.13;1.57;;;;;;;;;;5026938;28;20226;-75
2022/01/21 02:35:13;;;;;;;8.07;3.17;;;;;;;;;;5010174;28;20210;-75
2022/01/21 02:37:39;;;;;;;4.73;1.13;;;;;;;;;;5032544;28;20270;-75
2022/01/21 02:40:05;;;;;;;6.27;2.30;;;;;;;;;;5012185;28;20179;-75
2022/01/21 02:42:30;;;;;;;6.87;3.00;;;;;;;;;;5045484;28;20198;-75
2022/01/21 02:44:55;;;;;;;3.93;2.07;;;;;;;;;;5046615;28;20244;-75
2022/01/21 02:47:21;;;;;;;5.63;2.53;;;;;;;;;;5010052;28;20480;-75
2022/01/21 02:49:46;;;;;;;4.20;2.43;;;;;;;;;;5028492;28;20286;-75
2022/01/21 02:52:13;;;;;;;4.77;2.53;;;;;;;;;;5030217;28;20182;-75
2022/01/21 02:54:38;;;;;;;6.63;2.13;;;;;;;;;;5044438;28;20205;-75
2022/01/21 02:57:05;;;;;;;6.33;2.80;;;;;;;;;;5040061;28;20172;-75
2022/01/21 02:59:30;;;;;;;1.30;1.20;;;;;;;;;;5012618;28;20182;-75
2022/01/21 03:01:55;;;;;;;6.20;2.43;;;;;;;;;;5010197;28;20179;-75
2022/01/21 03:04:33;;;;;;;5.57;2.83;;;;;;;;;;5039435;28;20180;-75
2022/01/21 03:06:58;;;;;;;4.23;1.47;;;;;;;;;;5025490;28;20208;-75
2022/01/21 03:09:24;;;;;;;3.40;2.43;;;;;;;;;;5008827;28;20183;-75
2022/01/21 03:11:49;;;;;;;4.80;2.50;;;;;;;;;;5014881;28;20287;-75
2022/01/21 03:14:14;;;;;;;5.50;3.00;;;;;;;;;;5014281;28;20207;-75
2022/01/21 03:16:39;;;;;;;5.27;2.80;;;;;;;;;;5012614;28;20231;-75
2022/01/21 03:19:04;;;;;;;4.97;2.13;;;;;;;;;;5012784;28;20206;-75
2022/01/21 03:21:30;;;;;;;4.43;2.23;;;;;;;;;;5026747;28;20175;-75
2022/01/21 03:23:55;;;;;;;4.10;1.97;;;;;;;;;;5028196;28;20238;-75
2022/01/21 03:26:22;;;;;;;6.27;2.47;;;;;;;;;;5013279;28;20179;-75
2022/01/21 03:28:48;;;;;;;8.17;2.63;;;;;;;;;;5037528;28;20193;-75
2022/01/21 03:31:14;;;;;;;4.37;2.43;;;;;;;;;;5012854;28;20189;-75
2022/01/21 03:33:39;;;;;;;3.73;2.10;;;;;;;;;;5011981;28;20262;-75
2022/01/21 03:36:05;;;;;;;1.23;1.07;;;;;;;;;;5008677;28;20186;-75
2022/01/21 03:38:30;;;;;;;3.70;2.30;;;;;;;;;;5000013;28;20194;-75
2022/01/21 03:40:55;;;;;;;3.47;1.50;;;;;;;;;;5029126;28;20200;-75
2022/01/21 03:43:21;;;;;;;4.13;2.60;;;;;;;;;;5045190;28;20176;-75
2022/01/21 03:45:47;;;;;;;8.10;2.87;;;;;;;;;;5011345;28;20265;-75
2022/01/21 03:48:12;;;;;;;6.87;2.93;;;;;;;;;;5012967;28;20182;-75
2022/01/21 03:50:37;;;;;;;10.13;3.17;;;;;;;;;;5028551;28;20457;-75
2022/01/21 03:53:03;;;;;;;3.80;1.63;;;;;;;;;;5043459;28;20226;-75
2022/01/21 03:55:28;;;;;;;2.27;2.10;;;;;;;;;;5006149;28;20187;-75
2022/01/21 03:57:53;;;;;;;6.60;2.10;;;;;;;;;;5008935;28;20178;-75
2022/01/21 04:00:24;;;;;;;1.77;1.37;;;;;;;;;;5042246;28;20290;-75
2022/01/21 04:02:50;;;;;;;6.60;2.80;;;;;;;;;;5027211;28;20197;-75
2022/01/21 04:05:15;;;;;;;4.27;2.20;;;;;;;;;;5024960;28;20171;-75
2022/01/21 04:07:40;;;;;;;9.70;2.63;;;;;;;;;;5029946;28;20167;-75
2022/01/21 04:10:06;;;;;;;3.10;2.20;;;;;;;;;;5010719;28;20179;-75
2022/01/21 04:12:31;;;;;;;5.97;2.17;;;;;;;;;;5012481;28;20177;-75
2022/01/21 04:14:58;;;;;;;7.60;2.63;;;;;;;;;;5027724;28;20245;-75
2022/01/21 04:17:24;;;;;;;7.60;3.30;;;;;;;;;;5046989;28;20187;-75
2022/01/21 04:19:49;;;;;;;4.00;1.97;;;;;;;;;;5030102;28;20255;-75
2022/01/21 04:22:14;;;;;;;6.83;2.70;;;;;;;;;;5010523;28;20207;-75
2022/01/21 04:24:40;;;;;;;1.90;1.70;;;;;;;;;;5012276;28;20187;-75
2022/01/21 04:27:05;;;;;;;1.00;1.00;;;;;;;;;;5028362;28;20217;-75
2022/01/21 04:29:30;;;;;;;5.07;2.37;;;;;;;;;;5012290;28;20178;-75
2022/01/21 04:31:55;;;;;;;2.20;1.80;;;;;;;;;;5008130;28;20183;-75
2022/01/21 04:34:21;;;;;;;6.17;2.33;;;;;;;;;;5036635;28;20243;-75
2022/01/21 04:36:46;;;;;;;1.80;1.70;;;;;;;;;;5012034;28;20177;-75
2022/01/21 04:39:18;;;;;;;5.67;2.53;;;;;;;;;;5042734;28;20176;-75
2022/01/21 04:49:39;;;;;;;4.23;2.50;;;;;;;;;;5029426;28;20198;-75
2022/01/21 04:52:05;;;;;;;8.80;3.07;;;;;;;;;;5044974;28;20184;-75
2022/01/21 04:54:31;;;;;;;8.70;2.93;;;;;;;;;;5032907;28;20267;-75
2022/01/21 04:56:57;;;;;;;6.20;2.70;;;;;;;;;;5020786;28;20172;-75
2022/01/21 04:59:22;;;;;;;6.73;2.90;;;;;;;;;;5010451;28;20524;-75
2022/01/21 05:01:47;;;;;;;4.10;2.70;;;;;;;;;;5016872;28;20171;-75
2022/01/21 05:04:12;;;;;;;3.47;2.43;;;;;;;;;;5044744;28;20189;-75
2022/01/21 05:06:38;;;;;;;9.17;2.53;;;;;;;;;;5011538;28;20174;-75
2022/01/21 05:09:05;;;;;;;9.90;4.90;;;;;;;;;;5014172;28;20194;-75
2022/01/21 05:11:30;;;;;;;7.80;3.53;;;;;;;;;;5047752;28;20179;-75
2022/01/21 05:14:10;;;;;;;4.30;2.70;;;;;;;;;;5014699;28;20206;-75
2022/01/21 05:16:38;;;;;;;4.67;3.00;;;;;;;;;;5010301;28;20238;-75
2022/01/21 05:19:07;;;;;;;6.67;3.23;;;;;;;;;;5007871;28;20191;-75
2022/01/21 05:21:33;;;;;;;7.47;2.83;;;;;;;;;;5032809;28;20172;-75
2022/01/21 05:23:58;;;;;;;1.70;1.23;;;;;;;;;;5026475;28;20196;-75
2022/01/21 05:26:24;;;;;;;8.23;3.23;;;;;;;;;;5015909;28;20175;-75
2022/01/21 05:28:49;;;;;;;4.80;2.77;;;;;;;;;;5046276;28;20175;-75
2022/01/21 05:31:15;;;;;;;8.53;4.63;;;;;;;;;;5046177;28;20603;-75
2022/01/21 05:33:40;;;;;;;3.93;2.17;;;;;;;;;;5045435;28;20202;-75
2022/01/21 05:36:05;;;;;;;8.57;3.17;;;;;;;;;;5044750;28;20502;-75
2022/01/21 05:38:30;;;;;;;4.13;1.60;;;;;;;;;;5017355;28;20270;-75
2022/01/21 05:40:55;;;;;;;8.63;3.03;;;;;;;;;;5023702;28;20176;-75
2022/01/21 05:43:21;;;;;;;6.40;3.40;;;;;;;;;;5013785;28;20225;-75
2022/01/21 05:48:30;;;;;;;3.53;2.40;;;;;;;;;;5029412;28;20185;-75
2022/01/21 05:50:55;;;;;;;5.90;2.77;;;;;;;;;;5016359;28;20266;-75
2022/01/21 05:53:22;;;;;;;4.53;2.50;;;;;;;;;;5045523;28;20190;-75
2022/01/21 05:55:47;;;;;;;5.03;2.70;;;;;;;;;;5046010;28;20175;-75
2022/01/21 05:58:13;;;;;;;6.57;2.53;;;;;;;;;;5010614;28;20257;-75
2022/01/21 06:00:40;;;;;;;2.10;1.67;;;;;;;;;;5008081;28;20183;-75
2022/01/21 06:03:05;;;;;;;5.37;3.60;;;;;;;;;;5032427;28;20175;-75
2022/01/21 06:05:33;;;;;;;14.43;3.13;;;;;;;;;;5026162;28;20189;-80
2022/01/21 06:07:59;;;;;;;4.67;2.07;;;;;;;;;;5010499;28;20274;-78
2022/01/21 06:10:24;;;;;;;5.93;2.83;;;;;;;;;;5019514;28;20214;-78
2022/01/21 06:12:50;;;;;;;3.70;2.73;;;;;;;;;;5021015;28;20177;-79
2022/01/21 06:15:15;;;;;;;7.23;3.03;;;;;;;;;;5043644;28;20199;-78
2022/01/21 06:17:40;;;;;;;5.93;3.20;;;;;;;;;;5018807;28;20175;-78
2022/01/21 06:20:05;;;;;;;2.93;1.53;;;;;;;;;;5026340;28;20171;-78
2022/01/21 06:22:32;;;;;;;6.23;2.87;;;;;;;;;;5011836;28;20171;-78
2022/01/21 06:24:58;;;;;;;8.23;4.43;;;;;;;;;;5014982;28;20179;-78
2022/01/21 06:27:26;;;;;;;11.30;3.03;;;;;;;;;;5014556;28;20188;-78
2022/01/21 06:29:52;;;;;;;7.10;4.63;;;;;;;;;;5056163;28;20171;-78
2022/01/21 06:32:17;;;;;;;9.53;4.53;;;;;;;;;;5010270;28;20178;-78
2022/01/21 06:34:42;;;;;;;6.60;4.27;;;;;;;;;;5019145;28;20199;-78
2022/01/21 06:37:08;;;;;;;12.77;7.67;;;;;;;;;;5012364;28;20182;-78
2022/01/21 06:39:33;;;;;;;15.40;11.30;;;;;;;;;;5046506;28;20171;-78
2022/01/21 06:41:58;;;;;;;13.40;8.43;;;;;;;;;;5013171;28;20222;-78
2022/01/21 06:44:23;;;;;;;5.67;4.07;;;;;;;;;;5027667;28;20179;-79
2022/01/21 06:46:48;;;;;;;11.87;5.60;;;;;;;;;;5013318;28;20249;-78
2022/01/21 06:49:14;;;;;;;6.87;3.10;;;;;;;;;;5047055;28;20203;-78
2022/01/21 06:51:39;;;;;;;2.63;1.63;;;;;;;;;;5013057;28;20171;-80
2022/01/21 06:54:04;;;;;;;9.10;4.20;;;;;;;;;;5043789;28;20315;-78
2022/01/21 06:56:30;;;;;;;6.80;4.37;;;;;;;;;;4995908;28;20198;-78
2022/01/21 06:58:56;;;;;;;10.97;4.97;;;;;;;;;;5009732;28;20181;-78
2022/01/21 07:01:21;;;;;;;9.07;7.20;;;;;;;;;;5013592;28;20226;-78
2022/01/21 07:03:46;;;;;;;8.77;5.23;;;;;;;;;;5030635;28;20241;-78
2022/01/21 07:06:11;;;;;;;11.83;5.47;;;;;;;;;;5045343;28;20206;-79
2022/01/21 07:08:37;;;;;;;5.87;4.43;;;;;;;;;;5018101;28;20182;-78
2022/01/21 07:11:02;;;;;;;7.10;4.10;;;;;;;;;;5044517;28;20188;-78
2022/01/21 07:13:27;;;;;;;9.03;3.73;;;;;;;;;;5014783;28;20203;-80
2022/01/21 07:15:53;;;;;;;8.33;4.20;;;;;;;;;;5043759;28;20280;-80
2022/01/21 07:18:18;;;;;;;7.70;3.97;;;;;;;;;;5046183;28;20188;-78
2022/01/21 07:20:43;;;;;;;7.87;3.83;;;;;;;;;;5044670;28;20297;-78
2022/01/21 07:23:09;;;;;;;4.37;2.63;;;;;;;;;;5020919;28;20193;-78
2022/01/21 07:25:34;;;;;;;5.93;2.90;;;;;;;;;;5019432;28;20212;-79
2022/01/21 07:28:00;;;;;;;9.73;4.50;;;;;;;;;;5042152;28;20183;-78
2022/01/21 07:30:25;;;;;;;5.73;2.93;;;;;;;;;;5043156;28;20254;-78
2022/01/21 07:32:50;;;;;;;7.13;4.30;;;;;;;;;;5045672;28;20179;-78
2022/01/21 07:35:16;;;;;;;5.83;3.93;;;;;;;;;;5048463;28;20329;-78
2022/01/21 07:37:42;;;;;;;6.93;4.00;;;;;;;;;;5017475;28;20317;-78
2022/01/21 07:40:07;;;;;;;8.27;3.80;;;;;;;;;;5013514;28;20209;-78
2022/01/21 07:42:33;;;;;;;6.10;3.70;;;;;;;;;;5011109;28;20175;-78
2022/01/21 07:44:58;;;;;;;9.20;3.50;;;;;;;;;;5010664;28;20184;-78
2022/01/21 07:47:23;;;;;;;5.07;3.80;;;;;;;;;;5041469;28;20362;-78
2022/01/21 07:49:49;;;;;;;6.33;3.53;;;;;;;;;;5012585;28;20182;-78
2022/01/21 07:52:15;;;;;;;7.57;3.67;;;;;;;;;;5016429;28;20531;-77
2022/01/21 07:54:40;;;;;;;5.37;3.40;;;;;;;;;;5045214;28;20357;-78
2022/01/21 07:57:05;;;;;;;6.87;3.93;;;;;;;;;;5022228;28;20213;-78
2022/01/21 07:59:31;;;;;;;6.87;3.73;;;;;;;;;;5013065;28;20274;-78
2022/01/21 08:01:57;;;;;;;13.60;4.83;;;;;;;;;;5012601;28;20265;-78
2022/01/21 08:04:22;;;;;;;6.40;3.23;;;;;;;;;;5012598;28;20178;-78
2022/01/21 08:06:47;;;;;;;4.43;3.83;;;;;;;;;;5012138;28;20182;-78
2022/01/21 08:09:12;;;;;;;5.57;3.33;;;;;;;;;;5044074;28;20193;-78
2022/01/21 08:11:38;;;;;;;6.90;3.50;;;;;;;;;;5038620;28;20189;-78
2022/01/21 08:14:03;;;;;;;6.70;3.60;;;;;;;;;;5011369;28;20245;-78
2022/01/21 08:16:28;;;;;;;5.97;4.20;;;;;;;;;;5026557;28;20238;-78
2022/01/21 08:18:54;;;;;;;6.50;3.67;;;;;;;;;;5009510;28;20236;-78
2022/01/21 08:21:19;;;;;;;4.57;2.90;;;;;;;;;;5045147;28;20171;-78
2022/01/21 08:23:45;;;;;;;8.17;3.27;;;;;;;;;;5018488;28;20179;-78
2022/01/21 08:26:11;;;;;;;7.50;3.70;;;;;;;;;;5022618;28;20186;-78
2022/01/21 08:28:36;;;;;;;9.17;3.80;;;;;;;;;;5022326;28;20179;-78
2022/01/21 08:31:01;;;;;;;8.60;3.60;;;;;;;;;;5024577;28;20183;-78
2022/01/21 08:33:26;;;;;;;4.43;3.13;;;;;;;;;;5052199;28;20194;-78
2022/01/21 08:35:51;;;;;;;8.73;3.97;;;;;;;;;;5044755;28;20236;-78
2022/01/21 08:38:17;;;;;;;7.73;3.50;;;;;;;;;;5033728;28;20185;-78
2022/01/21 08:40:42;;;;;;;12.03;3.43;;;;;;;;;;5012998;28;20180;-78
2022/01/21 08:43:07;;;;;;;6.67;3.47;;;;;;;;;;5017422;28;20240;-78
2022/01/21 08:45:32;;;;;;;4.93;3.30;;;;;;;;;;5016425;28;20229;-78
2022/01/21 08:47:58;;;;;;;5.23;3.03;;;;;;;;;;5012175;28;20197;-78
2022/01/21 08:50:26;;;;;;;3.90;2.60;;;;;;;;;;5015965;28;20218;-78
2022/01/21 08:52:56;;;;;;;4.70;3.20;;;;;;;;;;5013656;28;20262;-78
2022/01/21 08:55:21;;;;;;;5.50;3.60;;;;;;;;;;5015325;28;20230;-78
2022/01/21 08:57:47;;;;;;;6.97;3.30;;;;;;;;;;5011891;28;20203;-78
2022/01/21 09:00:17;;;;;;;8.30;3.67;;;;;;;;;;5019473;28;20194;-78
2022/01/21 09:02:43;;;;;;;5.80;3.00;;;;;;;;;;5015583;28;20163;-78
2022/01/21 09:05:10;;;;;;;6.27;3.37;;;;;;;;;;5033618;28;20273;-78
2022/01/21 09:07:35;;;;;;;4.97;3.10;;;;;;;;;;5020317;28;20198;-78
2022/01/21 09:10:01;;;;;;;8.80;3.60;;;;;;;;;;5015815;28;20183;-78
2022/01/21 09:12:27;;;;;;;5.77;3.60;;;;;;;;;;5047389;28;20179;-78
2022/01/21 09:14:52;;;;;;;11.17;4.13;;;;;;;;;;5014764;28;20202;-78
2022/01/21 09:17:17;;;;;;;13.20;3.77;;;;;;;;;;5045850;28;20227;-78
2022/01/21 09:19:43;;;;;;;8.83;3.70;;;;;;;;;;5017689;28;20182;-78
2022/01/21 09:22:08;;;;;;;9.17;3.90;;;;;;;;;;5043940;28;20183;-78
2022/01/21 09:24:33;;;;;;;8.10;4.03;;;;;;;;;;5015636;28;20179;-78
2022/01/21 09:26:59;;;;;;;4.17;3.47;;;;;;;;;;5019917;28;20279;-77
2022/01/21 09:29:24;;;;;;;6.33;3.53;;;;;;;;;;5014758;28;20222;-78
2022/01/21 09:31:50;;;;;;;6.27;2.53;;;;;;;;;;5019452;28;20277;-78
2022/01/21 09:34:15;;;;;;;7.33;3.33;;;;;;;;;;5013965;28;20252;-78
2022/01/21 09:36:42;;;;;;;11.13;6.20;;;;;;;;;;5006242;28;20262;-78
2022/01/21 09:39:07;;;;;;;7.30;4.00;;;;;;;;;;5005774;28;20485;-78
2022/01/21 09:41:32;;;;;;;6.40;3.50;;;;;;;;;;5015989;28;20210;-78
2022/01/21 09:43:59;;;;;;;8.17;3.47;;;;;;;;;;5018935;28;20277;-78
2022/01/21 09:46:33;;;;;;;8.00;3.73;;;;;;;;;;5011928;28;20203;-78
2022/01/21 09:49:20;;;;;;;8.60;4.80;;;;;;;;;;5020578;28;20204;-78
2022/01/21 09:51:45;;;;;;;7.27;3.30;;;;;;;;;;5026304;28;20186;-78
2022/01/21 09:54:11;;;;;;;9.20;3.33;;;;;;;;;;5024755;28;20209;-78
2022/01/21 09:56:37;;;;;;;8.33;4.30;;;;;;;;;;5031721;28;20175;-78
2022/01/21 09:59:03;;;;;;;5.13;3.20;;;;;;;;;;5012008;28;20174;-78
2022/01/21 10:01:28;;;;;;;3.47;2.93;;;;;;;;;;5046893;28;20190;-78
2022/01/21 10:03:54;;;;;;;8.83;3.97;;;;;;;;;;5032001;28;20183;-78
2022/01/21 10:06:21;;;;;;;5.57;2.80;;;;;;;;;;5014576;28;20263;-78
2022/01/21 10:08:48;;;;;;;4.87;3.33;;;;;;;;;;5018435;28;20273;-78
2022/01/21 10:11:13;;;;;;;8.93;2.77;;;;;;;;;;5033242;28;20179;-78
2022/01/21 10:13:39;;;;;;;7.73;3.23;;;;;;;;;;5022633;28;20191;-78
2022/01/21 10:16:05;;;;;;;6.50;3.17;;;;;;;;;;5010643;28;20238;-78
2022/01/21 10:18:31;;;;;;;4.23;3.13;;;;;;;;;;5012110;28;20180;-78
2022/01/21 10:20:56;;;;;;;6.40;2.93;;;;;;;;;;5052804;28;20190;-78
2022/01/21 10:23:21;;;;;;;5.13;2.67;;;;;;;;;;5046771;28;20267;-78
2022/01/21 10:25:54;;;;;;;6.80;3.03;;;;;;;;;;5033229;28;20179;-78
2022/01/21 10:28:20;;;;;;;6.50;3.40;;;;;;;;;;5014466;28;20197;-78
2022/01/21 10:30:46;;;;;;;6.37;3.17;;;;;;;;;;5029806;28;20170;-78
2022/01/21 10:33:19;;;;;;;8.23;3.23;;;;;;;;;;5013231;28;20210;-78
2022/01/21 10:35:47;;;;;;;4.63;2.30;;;;;;;;;;5015580;28;20592;-78
2022/01/21 10:38:14;;;;;;;5.87;3.40;;;;;;;;;;5012203;28;20185;-78
2022/01/21 10:40:39;;;;;;;5.17;2.63;;;;;;;;;;5020098;28;20171;-78
2022/01/21 10:43:15;;;;;;;5.97;2.67;;;;;;;;;;5019526;28;20184;-78
2022/01/21 10:45:47;;;;;;;7.50;2.80;;;;;;;;;;5014152;28;20201;-78
2022/01/21 10:48:12;;;;;;;2.77;2.00;;;;;;;;;;5014816;28;20184;-78
2022/01/21 10:50:37;;;;;;;5.53;2.67;;;;;;;;;;5014785;28;20238;-78
2022/01/21 10:53:03;;;;;;;6.40;2.77;;;;;;;;;;5019248;28;20397;-78
2022/01/21 10:55:33;;;;;;;6.20;2.40;;;;;;;;;;5011967;28;20198;-78
2022/01/21 10:58:05;;;;;;;6.50;2.50;;;;;;;;;;5015100;28;20256;-78
2022/01/21 11:00:31;;;;;;;2.53;1.33;;;;;;;;;;5046956;28;20180;-78
2022/01/21 11:03:07;;;;;;;5.90;2.87;;;;;;;;;;5019345;28;20170;-78
2022/01/21 11:05:38;;;;;;;5.47;2.50;;;;;;;;;;5017837;28;20186;-78
2022/01/21 11:08:09;;;;;;;4.63;2.87;;;;;;;;;;5013550;28;20251;-78
2022/01/21 11:10:42;;;;;;;4.47;2.47;;;;;;;;;;5010792;28;20180;-78
2022/01/21 11:13:15;;;;;;;3.07;1.80;;;;;;;;;;5041660;28;20214;-78
2022/01/21 11:15:42;;;;;;;5.87;2.70;;;;;;;;;;5044426;28;20509;-78
2022/01/21 11:18:09;;;;;;;5.43;2.13;;;;;;;;;;5020673;28;20188;-78
2022/01/21 11:20:37;;;;;;;4.63;1.40;;;;;;;;;;5027248;28;20184;-78
2022/01/21 11:23:03;;;;;;;4.47;2.43;;;;;;;;;;5022653;28;20281;-78
2022/01/21 11:25:41;;;;;;;4.97;2.17;;;;;;;;;;5013109;28;20266;-78
2022/01/21 11:28:06;;;;;;;7.70;2.53;;;;;;;;;;5030842;28;20191;-78
2022/01/21 11:30:32;;;;;;;5.23;2.10;;;;;;;;;;5026642;28;20179;-78
2022/01/21 11:32:57;;;;;;;5.87;3.83;;;;;;;;;;5011499;28;20207;-78
2022/01/21 11:35:22;;;;;;;9.20;2.37;;;;;;;;;;5011529;28;20208;-78
2022/01/21 11:37:48;;;;;;;6.47;3.30;;;;;;;;;;5012720;28;20186;-78
2022/01/21 11:40:13;;;;;;;3.97;2.40;;;;;;;;;;5012173;28;20421;-78
2022/01/21 11:42:39;;;;;;;5.37;2.50;;;;;;;;;;5045795;28;20179;-78
2022/01/21 11:45:18;;;;;;;6.27;2.57;;;;;;;;;;5046088;28;20184;-78
2022/01/21 11:48:01;;;;;;;4.80;3.13;;;;;;;;;;5041176;28;20182;-78
2022/01/21 11:50:29;;;;;;;5.90;2.87;;;;;;;;;;5011007;28;20493;-78
2022/01/21 11:52:54;;;;;;;8.00;2.17;;;;;;;;;;5015025;28;20190;-78
2022/01/21 11:55:29;;;;;;;6.57;2.70;;;;;;;;;;5043014;28;20211;-78
2022/01/21 11:58:09;;;;;;;6.90;2.50;;;;;;;;;;5016310;28;20185;-78
2022/01/21 12:00:35;;;;;;;2.97;2.13;;;;;;;;;;5014910;28;20260;-78
2022/01/21 12:03:00;;;;;;;2.83;1.97;;;;;;;;;;5050510;28;20210;-78
2022/01/21 12:05:26;;;;;;;1.90;1.43;;;;;;;;;;5021077;28;20176;-78
2022/01/21 12:07:51;;;;;;;6.30;2.30;;;;;;;;;;5018532;28;20178;-78
2022/01/21 12:10:23;;;;;;;5.67;3.03;;;;;;;;;;5020207;28;20184;-78
2022/01/21 12:12:54;;;;;;;5.20;2.40;;;;;;;;;;5022901;28;20272;-78
2022/01/21 12:18:04;;;;;;;2.80;2.20;;;;;;;;;;5040603;28;20182;-78
2022/01/21 12:20:31;;;;;;;3.60;1.80;;;;;;;;;;5024707;28;20178;-78
2022/01/21 12:23:14;;;;;;;6.53;2.57;;;;;;;;;;5014761;28;20184;-78
2022/01/21 12:25:58;;;;;;;2.73;1.87;;;;;;;;;;5026120;28;20178;-78
2022/01/21 12:28:23;;;;;;;5.90;2.07;;;;;;;;;;5030908;28;20182;-78
2022/01/21 12:30:53;;;;;;;5.90;2.50;;;;;;;;;;5027970;28;20180;-78
2022/01/21 12:33:18;;;;;;;4.13;2.77;;;;;;;;;;5023723;28;20203;-78
2022/01/21 12:35:45;;;;;;;3.57;1.60;;;;;;;;;;5019542;28;20198;-78
2022/01/21 12:39:05;;;;;;;5.70;2.77;;;;;;;;;;5020951;28;20298;-78
2022/01/21 12:40:57;;;;;;;3.73;2.47;;;;;;;;;;5038027;28;20266;-78
2022/01/21 12:43:41;;;;;;;6.93;2.10;;;;;;;;;;5036403;28;20175;-78
2022/01/21 12:46:07;;;;;;;2.87;1.80;;;;;;;;;;5029326;28;20240;-78
2022/01/21 12:48:36;;;;;;;4.97;1.70;;;;;;;;;;5023805;28;20205;-78
2022/01/21 12:51:14;;;;;;;2.10;1.73;;;;;;;;;;5037369;28;20264;-78
2022/01/21 12:55:55;;;;;;;2.87;1.77;;;;;;;;;;5017788;28;20349;-78
2022/01/21 12:56:25;;;;;;;5.87;2.20;;;;;;;;;;5034597;28;20182;-78
2022/01/21 12:58:50;;;;;;;3.57;1.67;;;;;;;;;;5021340;28;20170;-78
2022/01/21 13:01:16;;;;;;;7.47;3.10;;;;;;;;;;5052096;28;20190;-78
2022/01/21 13:03:55;;;;;;;7.10;2.27;;;;;;;;;;5023849;28;20265;-78
2022/01/21 13:06:32;;;;;;;3.00;2.20;;;;;;;;;;5022544;28;20185;-78
2022/01/21 13:09:08;;;;;;;4.60;2.97;;;;;;;;;;5023865;28;20183;-78
2022/01/21 13:11:35;;;;;;;6.53;2.20;;;;;;;;;;5024878;28;20205;-78
2022/01/21 13:14:12;;;;;;;5.57;2.50;;;;;;;;;;5033518;28;20198;-78
2022/01/21 13:16:39;;;;;;;4.53;2.90;;;;;;;;;;5018437;28;20218;-78
2022/01/21 13:19:08;;;;;;;5.53;3.03;;;;;;;;;;5016766;28;20245;-78
2022/01/21 13:21:34;;;;;;;13.77;6.20;;;;;;;;;;5033201;28;20214;-78
2022/01/21 13:24:02;;;;;;;9.43;5.03;;;;;;;;;;5012759;28;20183;-78
2022/01/21 13:26:31;;;;;;;6.30;2.50;;;;;;;;;;5048070;28;20175;-78
2022/01/21 13:28:57;;;;;;;6.43;2.87;;;;;;;;;;5045209;28;20229;-78
2022/01/21 13:31:23;;;;;;;9.07;2.67;;;;;;;;;;5032206;28;20183;-78
2022/01/21 13:33:49;;;;;;;4.97;3.07;;;;;;;;;;5021347;28;20192;-78
2022/01/21 13:36:16;;;;;;;2.87;2.30;;;;;;;;;;5022562;28;20217;-78
2022/01/21 13:38:41;;;;;;;3.53;2.40;;;;;;;;;;5019256;28;20182;-78
2022/01/21 13:41:11;;;;;;;3.90;2.57;;;;;;;;;;5038153;28;20183;-78
2022/01/21 13:43:36;;;;;;;5.07;2.90;;;;;;;;;;5018591;28;20179;-78
2022/01/21 13:46:03;;;;;;;3.73;2.73;;;;;;;;;;5032871;28;20179;-78
2022/01/21 13:48:30;;;;;;;4.70;2.40;;;;;;;;;;5010427;28;20191;-80
2022/01/21 13:50:57;;;;;;;6.20;2.70;;;;;;;;;;5006802;28;20187;-76
2022/01/21 13:53:23;;;;;;;9.83;3.33;;;;;;;;;;5030015;28;20202;-76
2022/01/21 13:55:50;;;;;;;5.83;3.57;;;;;;;;;;5043557;28;20203;-76
2022/01/21 13:58:22;;;;;;;3.53;2.60;;;;;;;;;;5028619;28;20197;-76
2022/01/21 14:00:49;;;;;;;8.80;4.40;;;;;;;;;;5016879;28;20206;-76
2022/01/21 14:03:19;;;;;;;7.57;4.67;;;;;;;;;;5013794;28;21897;-75
2022/01/21 14:06:02;;;;;;;7.80;3.30;;;;;;;;;;5036635;28;20189;-75
2022/01/21 14:08:29;;;;;;;5.10;4.23;;;;;;;;;;5013858;28;20182;-75
2022/01/21 14:10:56;;;;;;;8.50;4.20;;;;;;;;;;5048744;28;21158;-76
2022/01/21 14:13:23;;;;;;;6.57;3.40;;;;;;;;;;5015141;28;20240;-76
2022/01/21 14:15:48;;;;;;;5.80;2.87;;;;;;;;;;5016882;28;20292;-75
2022/01/21 14:18:13;;;;;;;4.70;3.43;;;;;;;;;;5027612;28;20197;-76
2022/01/21 14:20:39;;;;;;;15.30;3.27;;;;;;;;;;5016399;28;20210;-76
2022/01/21 14:23:05;;;;;;;3.87;3.13;;;;;;;;;;5017725;28;20179;-75
2022/01/21 14:25:30;;;;;;;5.77;3.20;;;;;;;;;;5018576;28;20318;-75
2022/01/21 14:27:55;;;;;;;7.07;3.10;;;;;;;;;;5029565;28;20178;-76
2022/01/21 14:30:22;;;;;;;6.83;2.80;;;;;;;;;;5015231;28;20182;-75
2022/01/21 14:32:52;;;;;;;7.50;2.67;;;;;;;;;;5024580;28;20178;-75
2022/01/21 14:35:19;;;;;;;8.87;2.47;;;;;;;;;;5013027;28;20217;-75
2022/01/21 14:37:50;;;;;;;7.70;3.17;;;;;;;;;;5011586;28;20177;-75
2022/01/21 14:40:17;;;;;;;7.87;2.80;;;;;;;;;;5018290;28;20182;-75
2022/01/21 14:42:42;;;;;;;3.63;2.67;;;;;;;;;;5016601;28;20369;-76
2022/01/21 14:45:18;;;;;;;9.43;3.60;;;;;;;;;;5017795;28;20287;-76
2022/01/21 14:47:44;;;;;;;4.40;2.93;;;;;;;;;;5018525;28;20185;-75
2022/01/21 14:50:22;;;;;;;3.20;2.90;;;;;;;;;;5043277;28;20183;-75
2022/01/21 14:52:47;;;;;;;6.10;3.00;;;;;;;;;;5022530;28;20181;-76
2022/01/21 14:55:30;;;;;;;11.20;7.17;;;;;;;;;;5047600;28;20210;-76
2022/01/21 14:58:13;;;;;;;7.90;3.87;;;;;;;;;;5027835;28;20194;-76
2022/01/21 15:00:40;;;;;;;10.00;5.03;;;;;;;;;;5032135;28;20227;-76
2022/01/21 15:03:11;;;;;;;8.37;5.10;;;;;;;;;;5011625;28;20181;-75
2022/01/21 15:05:37;;;;;;;7.03;4.10;;;;;;;;;;5029686;28;20186;-76
2022/01/21 15:08:03;;;;;;;5.73;3.53;;;;;;;;;;5041232;28;20183;-76
2022/01/21 15:10:40;;;;;;;5.23;3.47;;;;;;;;;;5049940;28;20235;-75
2022/01/21 15:16:10;;;;;;;6.00;2.70;;;;;;;;;;5013959;28;20283;-75
2022/01/21 15:18:36;;;;;;;6.83;4.27;;;;;;;;;;5018822;28;20175;-76
2022/01/21 15:21:02;;;;;;;11.27;4.57;;;;;;;;;;5012527;28;20271;-75
2022/01/21 15:23:28;;;;;;;6.27;3.67;;;;;;;;;;5006507;28;20257;-76
2022/01/21 15:25:53;;;;;;;6.70;3.27;;;;;;;;;;5045070;28;20182;-76
2022/01/21 15:28:18;;;;;;;6.20;3.27;;;;;;;;;;5014228;28;20186;-76
2022/01/21 15:30:44;;;;;;;6.80;2.67;;;;;;;;;;5031070;28;20197;-75
2022/01/21 15:33:09;;;;;;;9.57;3.23;;;;;;;;;;5007769;28;20219;-76
2022/01/21 15:35:35;;;;;;;4.10;2.60;;;;;;;;;;4995278;28;20268;-76